Wilton, WI (54670)

10:46 AM CDT on September 03, 2015 (GMT -0500)
Kendall, Wi. | | Change Station
CLOSE
Current Station
Personal Weather Station
Location: Kendall, WI
Elevation: 1021 ft
Nearby Weather Stations

Elev 1021 ft 43.79 °N, 90.37 °W | Updated 4 seconds ago

Mostly Cloudy
Mostly Cloudy
85.8 °F
Feels Like 86 °F
N
1.2
Wind Variable Wind from NE
Gusts 2.9 mph

Today
High -- | Low -- °F
--% Chance of Precip.
Yesterday
High -- | Low -- °F
Precip. -- in
6:27 AM 7:34 PM
Waning Gibbous, 69% visible
Pressure 29.94 in
Visibility 10.0 miles
Clouds Overcast 1300 ft
Heat Index 86 °F
Dew Point 60 °F
Humidity 42%
Rainfall 0.00 in
Snow Depth Not available.
UV 2 out of 12
Pollen 4.80 out of 12
Air Quality Not available.
Flu Activity Not available.
METAR KCMY 031535Z AUTO 00000KT 10SM OVC013 26/20 A2994 RMK AO2 T02550202
Pressure 29.94 in
Visibility 10.0 miles
Clouds Overcast 1300 ft
Heat Index 86 °F
Dew Point 60 °F
Humidity 42%
Rainfall 0.00 in
Snow Depth Not available.
UV 2 out of 12
Pollen 4.80 out of 12
Air Quality Not available.
Flu Activity Not available.
METAR KCMY 031535Z AUTO 00000KT 10SM OVC013 26/20 A2994 RMK AO2 T02550202

10-Day Weather Forecast

×

Almanac

Astronomy

Sep. 03, 2015 Rise Set
Actual Time
Civil Twilight
Nautical Twilight
Astronomical Twilight
Moon
Length of Visible Light
Length of Day
Tomorrow will be .
, % of the Moon is Illuminated

Today's Extremes

State Highs State Lows

Community

WunderPhotos

Upload Photos

1,851,974 photos uploaded!

WunderBlogs® & News

Nearby

Air Quality

  Air Quality AQ Index Pollutant
Not available.

Snow Depth

Station Depth Elevation

Earthquake Activity

City Distance Mag. Time & Date
Minimum magnitude displayed is 2.5.

Coastal Water Temperatures

Place Temperature

Stations

Nearby Weather Stations

Station Location Temp. Windchill Dew Point Humidity Wind Precip. Elev Updated Type